Time;durP1;ratioP1;P1;durP2;ratioP2;P2;SDS_P1;SDS_P2;PMS_P1;PMS_P2;Temp;Humidity;BMP_temperature;BMP_pressure;BME280_temperature;BME280_humidity;BME280_pressure;Samples;Min_cycle;Max_cycle;Signal;HPM_P1;HPM_P2
2021/12/19 00:03:06;;;;;;;35.60;29.27;;;6.20;99.90;;;;;;10498616;28;20236;-77
2021/12/19 00:13:29;;;;;;;35.67;26.87;;;6.20;99.90;;;;;;10496837;28;20227;-77
2021/12/19 00:18:31;;;;;;;36.73;29.23;;;6.30;99.90;;;;;;10497754;28;20216;-76
2021/12/19 00:23:33;;;;;;;37.57;29.17;;;6.30;99.90;;;;;;10497976;28;20609;-77
2021/12/19 00:28:36;;;;;;;38.83;29.90;;;6.30;99.90;;;;;;10480959;28;20221;-76
2021/12/19 00:33:39;;;;;;;38.20;30.90;;;6.40;99.90;;;;;;10498516;28;20263;-77
2021/12/19 00:38:42;;;;;;;41.97;30.33;;;6.40;99.90;;;;;;10480162;28;20217;-77
2021/12/19 00:43:52;;;;;;;40.63;31.13;;;6.40;99.90;;;;;;10498284;28;20192;-77
2021/12/19 00:48:56;;;;;;;42.07;31.43;;;6.30;99.90;;;;;;10496640;28;20304;-76
2021/12/19 00:53:58;;;;;;;38.73;31.03;;;6.40;99.90;;;;;;10497498;28;20540;-76
2021/12/19 00:59:02;;;;;;;40.87;30.57;;;6.30;99.90;;;;;;10495612;28;20249;-77
2021/12/19 01:04:05;;;;;;;41.07;32.10;;;6.30;99.90;;;;;;10497354;28;20196;-77
2021/12/19 01:09:08;;;;;;;43.87;32.97;;;6.40;99.90;;;;;;10497523;28;20216;-77
2021/12/19 01:14:11;;;;;;;43.03;32.40;;;6.30;99.90;;;;;;10495897;28;20258;-77
2021/12/19 01:19:13;;;;;;;42.27;33.30;;;6.30;99.90;;;;;;10497748;28;20219;-77
2021/12/19 01:24:15;;;;;;;41.53;32.70;;;6.30;99.90;;;;;;10480558;28;20295;-77
2021/12/19 01:29:19;;;;;;;47.63;34.40;;;6.30;99.90;;;;;;10480313;28;20592;-76
2021/12/19 01:34:21;;;;;;;42.23;31.97;;;6.30;99.90;;;;;;10497747;28;20204;-76
2021/12/19 01:39:23;;;;;;;44.20;32.20;;;6.30;99.90;;;;;;10499949;28;20201;-76
2021/12/19 01:44:27;;;;;;;44.00;33.40;;;6.30;99.90;;;;;;10498293;28;20192;-77
2021/12/19 01:49:30;;;;;;;45.60;34.17;;;6.30;99.90;;;;;;10498185;28;20204;-77
2021/12/19 01:54:32;;;;;;;46.33;34.47;;;6.40;99.90;;;;;;10496834;28;20232;-77
2021/12/19 01:59:36;;;;;;;44.53;34.40;;;6.50;99.90;;;;;;10495271;28;20216;-77
2021/12/19 02:04:38;;;;;;;41.33;32.17;;;6.40;99.90;;;;;;10494044;28;20188;-78
2021/12/19 02:09:41;;;;;;;44.73;33.50;;;6.50;99.90;;;;;;10498195;28;20185;-77
2021/12/19 02:14:45;;;;;;;46.37;34.03;;;6.50;99.90;;;;;;10479340;28;20242;-76
2021/12/19 02:19:50;;;;;;;43.37;31.90;;;6.50;99.90;;;;;;10496948;28;20227;-78
2021/12/19 02:24:54;;;;;;;43.40;31.93;;;6.60;99.90;;;;;;10498454;28;20192;-77
2021/12/19 02:29:57;;;;;;;42.63;32.70;;;6.60;99.90;;;;;;10497496;28;20731;-77
2021/12/19 02:35:03;;;;;;;41.30;30.17;;;6.50;99.90;;;;;;10480678;28;20217;-76
2021/12/19 02:40:29;;;;;;;38.87;28.47;;;6.50;99.90;;;;;;10480337;28;20224;-78
2021/12/19 02:50:53;;;;;;;36.73;27.10;;;6.50;99.90;;;;;;10505755;28;20211;-77
2021/12/19 02:55:57;;;;;;;33.07;24.40;;;6.50;99.90;;;;;;10509428;28;20707;-77
2021/12/19 03:01:02;;;;;;;31.47;24.03;;;6.50;99.90;;;;;;10484307;28;20224;-77
2021/12/19 03:06:05;;;;;;;32.00;24.77;;;6.50;99.90;;;;;;10502957;28;20273;-77
2021/12/19 03:21:48;;;;;;;31.97;23.40;;;6.50;99.90;;;;;;10503767;28;20251;-77
2021/12/19 03:26:51;;;;;;;33.63;24.70;;;6.50;99.90;;;;;;10501581;28;20307;-77
2021/12/19 03:31:53;;;;;;;32.83;24.80;;;6.50;99.90;;;;;;10501647;28;20193;-78
2021/12/19 03:36:55;;;;;;;31.07;23.70;;;6.50;99.90;;;;;;10500192;28;20226;-77
2021/12/19 03:41:59;;;;;;;28.97;22.03;;;6.50;99.90;;;;;;10501439;28;20223;-78
2021/12/19 03:47:01;;;;;;;27.50;22.37;;;6.50;99.90;;;;;;10500212;28;20323;-77
2021/12/19 03:52:04;;;;;;;25.87;19.93;;;6.50;99.90;;;;;;10501250;28;20203;-77
2021/12/19 03:57:07;;;;;;;27.43;21.07;;;6.40;99.90;;;;;;10499290;28;20303;-78
2021/12/19 04:02:11;;;;;;;24.20;20.03;;;6.30;99.90;;;;;;10499402;28;20217;-77
2021/12/19 04:07:13;;;;;;;24.37;20.03;;;6.30;99.90;;;;;;10499938;28;20215;-77
2021/12/19 04:12:18;;;;;;;20.20;16.83;;;6.30;99.90;;;;;;10500067;28;20661;-77
2021/12/19 04:17:20;;;;;;;22.83;18.30;;;6.30;99.90;;;;;;10499701;28;20223;-77
2021/12/19 04:22:23;;;;;;;21.07;15.90;;;6.20;99.90;;;;;;10499407;28;20284;-77
2021/12/19 04:27:26;;;;;;;21.70;17.67;;;6.20;99.90;;;;;;10499185;28;20217;-77
2021/12/19 04:32:33;;;;;;;21.33;17.30;;;6.10;99.90;;;;;;10497861;28;20665;-77
2021/12/19 04:38:02;;;;;;;21.10;16.67;;;6.00;99.90;;;;;;10499169;28;20212;-77
2021/12/19 04:54:00;;;;;;;20.23;16.60;;;5.90;99.90;;;;;;10479955;28;20196;-77
2021/12/19 04:59:37;;;;;;;24.73;18.50;;;5.90;99.90;;;;;;10496411;28;20661;-76
2021/12/19 05:15:23;;;;;;;17.63;14.93;;;5.90;99.90;;;;;;10497363;28;20299;-77
2021/12/19 05:20:28;;;;;;;18.80;16.40;;;5.90;99.90;;;;;;10495882;28;20291;-77
2021/12/19 05:25:30;;;;;;;22.90;17.50;;;5.80;99.90;;;;;;10497109;28;20292;-77
2021/12/19 05:30:34;;;;;;;21.07;15.47;;;5.80;99.90;;;;;;10496002;28;20558;-76
2021/12/19 05:36:07;;;;;;;21.23;14.97;;;5.80;99.90;;;;;;10496975;28;20216;-77
2021/12/19 05:46:34;;;;;;;18.00;14.23;;;5.90;99.90;;;;;;10496872;28;20209;-77
2021/12/19 05:51:36;;;;;;;18.30;14.70;;;5.90;99.90;;;;;;10495812;28;20195;-77
2021/12/19 05:56:38;;;;;;;20.83;16.63;;;5.90;99.90;;;;;;10519399;22;20247;-78
2021/12/19 06:01:42;;;;;;;22.00;16.30;;;6.00;99.90;;;;;;10496776;28;20502;-78
2021/12/19 06:06:46;;;;;;;22.57;16.77;;;6.00;99.90;;;;;;10494630;28;20220;-78
2021/12/19 06:11:48;;;;;;;18.47;15.50;;;6.00;99.90;;;;;;10484357;28;20556;-79
2021/12/19 06:16:51;;;;;;;18.07;14.70;;;6.00;99.90;;;;;;10500153;28;20223;-79
2021/12/19 06:21:53;;;;;;;17.70;14.37;;;6.00;99.90;;;;;;10503956;28;20836;-78
2021/12/19 06:26:55;;;;;;;21.07;16.27;;;6.00;99.90;;;;;;10505191;28;20238;-78
2021/12/19 06:31:59;;;;;;;17.43;14.23;;;6.00;99.90;;;;;;10500862;28;20570;-78
2021/12/19 06:37:01;;;;;;;17.53;13.30;;;6.00;99.90;;;;;;10502344;28;20217;-78
2021/12/19 06:42:05;;;;;;;16.97;14.17;;;5.90;99.90;;;;;;10487293;28;20259;-78
2021/12/19 06:47:08;;;;;;;15.53;12.30;;;5.80;99.90;;;;;;10488123;28;20582;-78
2021/12/19 06:52:10;;;;;;;15.23;12.60;;;5.80;99.90;;;;;;10503517;28;20185;-78
2021/12/19 06:57:12;;;;;;;14.13;12.27;;;5.70;99.90;;;;;;10518505;28;20250;-78
2021/12/19 07:02:17;;;;;;;13.07;11.20;;;5.60;99.90;;;;;;10526826;28;20216;-78
2021/12/19 07:07:21;;;;;;;14.73;12.03;;;5.50;99.90;;;;;;10543475;28;20211;-78
2021/12/19 07:12:26;;;;;;;11.93;10.10;;;5.60;99.90;;;;;;10508570;28;20234;-78
2021/12/19 07:17:29;;;;;;;12.87;10.27;;;5.60;99.90;;;;;;10542967;28;20291;-79
2021/12/19 07:22:31;;;;;;;12.23;10.80;;;5.50;99.90;;;;;;10545407;28;20308;-78
2021/12/19 07:27:33;;;;;;;13.20;10.20;;;5.40;99.90;;;;;;10542052;28;20295;-78
2021/12/19 07:32:38;;;;;;;12.20;10.20;;;5.40;99.90;;;;;;10532440;28;20191;-78
2021/12/19 07:37:41;;;;;;;11.13;9.83;;;5.30;99.90;;;;;;10530397;28;20251;-79
2021/12/19 07:42:43;;;;;;;9.70;8.50;;;5.20;99.90;;;;;;10525107;28;20235;-79
2021/12/19 07:47:47;;;;;;;10.03;8.77;;;5.10;99.90;;;;;;10527835;28;20311;-79
2021/12/19 07:52:49;;;;;;;9.70;8.70;;;5.10;99.90;;;;;;10543843;28;20192;-78
2021/12/19 07:57:51;;;;;;;9.77;8.20;;;5.20;99.90;;;;;;10526947;28;20212;-79
2021/12/19 08:02:55;;;;;;;8.87;7.30;;;5.20;99.90;;;;;;10531373;28;20239;-78
2021/12/19 08:08:01;;;;;;;10.40;7.87;;;5.20;99.90;;;;;;10528227;28;20690;-78
2021/12/19 08:13:05;;;;;;;8.00;7.20;;;5.30;99.90;;;;;;10529099;28;20184;-78
2021/12/19 08:18:09;;;;;;;10.00;8.07;;;5.30;99.90;;;;;;10522846;28;20683;-78
2021/12/19 08:23:11;;;;;;;7.83;7.13;;;5.30;99.90;;;;;;10524226;28;20215;-78
2021/12/19 08:28:14;;;;;;;8.97;7.37;;;5.40;99.90;;;;;;10505468;28;20224;-78
2021/12/19 08:33:17;;;;;;;8.43;7.40;;;5.40;99.90;;;;;;10539886;28;20279;-78
2021/12/19 08:38:19;;;;;;;8.83;7.47;;;5.40;99.90;;;;;;10507280;28;20231;-78
2021/12/19 08:43:22;;;;;;;7.17;6.17;;;5.40;99.90;;;;;;10523226;28;20219;-79
2021/12/19 08:48:26;;;;;;;8.50;7.33;;;5.40;99.90;;;;;;10522989;28;20219;-79
2021/12/19 08:53:28;;;;;;;8.90;8.00;;;5.50;99.90;;;;;;10542667;28;20180;-79
2021/12/19 08:58:30;;;;;;;7.30;6.60;;;5.60;99.90;;;;;;10548479;28;20733;-79
2021/12/19 09:03:34;;;;;;;8.80;7.10;;;5.70;99.90;;;;;;10546869;28;20211;-78
2021/12/19 09:08:36;;;;;;;8.67;7.77;;;5.80;99.90;;;;;;10548833;28;20215;-78
2021/12/19 09:13:38;;;;;;;7.40;6.70;;;5.80;99.90;;;;;;10524873;28;20206;-78
2021/12/19 09:18:41;;;;;;;7.40;6.40;;;5.90;99.90;;;;;;10541728;28;20240;-78
2021/12/19 09:23:44;;;;;;;8.83;7.87;;;6.00;99.90;;;;;;10541448;28;20272;-79
2021/12/19 09:28:46;;;;;;;6.80;6.10;;;6.00;99.90;;;;;;10525899;28;20223;-78
2021/12/19 09:33:50;;;;;;;7.93;7.13;;;6.00;99.90;;;;;;10528102;28;20196;-78
2021/12/19 09:38:52;;;;;;;7.50;6.80;;;6.00;99.90;;;;;;10541618;28;20265;-78
2021/12/19 09:43:56;;;;;;;5.10;4.70;;;6.00;99.90;;;;;;10533040;28;20241;-79
2021/12/19 09:48:59;;;;;;;5.93;5.33;;;6.10;99.90;;;;;;10552232;28;20215;-79
2021/12/19 09:54:01;;;;;;;6.50;5.90;;;6.30;99.90;;;;;;10516189;28;20191;-78
2021/12/19 09:59:08;;;;;;;5.37;4.87;;;6.20;99.90;;;;;;10533874;28;20223;-79
2021/12/19 10:04:29;;;;;;;5.40;4.90;;;6.30;99.90;;;;;;10546909;28;20211;-78
2021/12/19 10:09:32;;;;;;;5.70;5.20;;;6.30;99.90;;;;;;10511789;28;20248;-79
2021/12/19 10:14:37;;;;;;;5.27;4.87;;;6.30;99.90;;;;;;10529494;28;20266;-78
2021/12/19 10:19:45;;;;;;;5.53;5.03;;;6.30;99.90;;;;;;10545929;28;20233;-78
2021/12/19 10:24:47;;;;;;;4.37;3.97;;;6.40;99.90;;;;;;10538728;28;20319;-79
2021/12/19 10:29:49;;;;;;;5.03;4.47;;;6.40;99.90;;;;;;10522726;28;20288;-79
2021/12/19 10:35:14;;;;;;;4.10;3.80;;;6.40;99.90;;;;;;10559451;28;20192;-79
2021/12/19 10:40:16;;;;;;;4.93;4.50;;;6.40;99.90;;;;;;10558176;28;20671;-79
2021/12/19 10:45:31;;;;;;;4.50;4.10;;;6.50;99.90;;;;;;10536435;28;20222;-79
2021/12/19 10:50:44;;;;;;;4.17;3.87;;;6.50;99.90;;;;;;10512031;28;20615;-78
2021/12/19 10:55:49;;;;;;;4.43;4.03;;;6.40;99.90;;;;;;10526999;28;20600;-78
2021/12/19 11:01:04;;;;;;;4.40;4.10;;;6.40;99.90;;;;;;10544670;28;20675;-79
2021/12/19 11:06:22;;;;;;;3.90;3.60;;;6.40;99.90;;;;;;10524972;28;20679;-79
2021/12/19 11:11:40;;;;;;;4.13;3.83;;;6.50;99.90;;;;;;10509865;28;20192;-79
2021/12/19 11:16:43;;;;;;;4.63;4.27;;;6.60;99.90;;;;;;10542914;28;20223;-79
2021/12/19 11:21:47;;;;;;;4.80;4.50;;;6.60;99.90;;;;;;10508807;28;20228;-79
2021/12/19 11:26:52;;;;;;;4.30;4.00;;;6.70;99.90;;;;;;10544755;28;20707;-78
2021/12/19 11:31:57;;;;;;;5.70;5.20;;;6.70;99.90;;;;;;10526861;28;20263;-78
2021/12/19 11:37:10;;;;;;;4.90;4.43;;;6.80;99.90;;;;;;10523907;28;20265;-78
2021/12/19 11:42:15;;;;;;;6.73;6.13;;;6.80;99.90;;;;;;10541606;28;20216;-78
2021/12/19 11:47:38;;;;;;;5.00;4.60;;;6.70;99.90;;;;;;10523895;28;20207;-79
2021/12/19 11:52:42;;;;;;;5.33;4.83;;;6.70;99.90;;;;;;10532260;28;20218;-79
2021/12/19 11:58:11;;;;;;;5.20;4.70;;;6.80;99.90;;;;;;10531119;22;20228;-78
2021/12/19 12:03:54;;;;;;;5.20;4.70;;;6.80;99.90;;;;;;10501946;28;20213;-78
2021/12/19 12:09:16;;;;;;;5.60;5.10;;;6.90;99.90;;;;;;10424188;28;20248;-78
2021/12/19 12:14:23;;;;;;;5.83;5.30;;;6.90;99.90;;;;;;10501136;28;20680;-78
2021/12/19 12:19:42;;;;;;;5.60;5.10;;;6.80;99.90;;;;;;10498976;28;20213;-77
2021/12/19 12:25:08;;;;;;;5.60;5.10;;;6.80;99.90;;;;;;10497565;28;20227;-77
2021/12/19 12:30:13;;;;;;;6.17;5.67;;;6.70;99.90;;;;;;10499689;28;20236;-78
2021/12/19 12:35:17;;;;;;;6.00;5.47;;;6.80;99.90;;;;;;10505427;28;20277;-79
2021/12/19 12:40:29;;;;;;;6.03;5.53;;;6.80;99.90;;;;;;10503967;28;20221;-78
2021/12/19 12:45:46;;;;;;;5.67;5.17;;;6.80;99.90;;;;;;10506271;28;20651;-78
2021/12/19 12:50:50;;;;;;;5.67;5.17;;;6.80;99.90;;;;;;10504554;28;20211;-78
2021/12/19 12:56:03;;;;;;;5.90;5.40;;;6.80;99.90;;;;;;10506580;28;20659;-78
2021/12/19 13:01:23;;;;;;;5.63;5.17;;;6.80;99.90;;;;;;10506944;28;20204;-79
2021/12/19 13:06:47;;;;;;;5.63;5.13;;;6.80;99.90;;;;;;10504548;28;20216;-80
2021/12/19 13:11:52;;;;;;;5.73;5.17;;;6.80;99.90;;;;;;10503941;28;20238;-78
2021/12/19 13:16:56;;;;;;;6.07;5.57;;;6.80;99.90;;;;;;10502871;28;20307;-79
2021/12/19 13:21:59;;;;;;;6.13;5.63;;;6.80;99.90;;;;;;10505402;28;20219;-78
2021/12/19 13:27:09;;;;;;;6.67;6.07;;;6.80;99.90;;;;;;10503492;28;20220;-79
2021/12/19 13:32:20;;;;;;;6.17;5.67;;;6.80;99.90;;;;;;10503166;28;20202;-78
2021/12/19 13:37:23;;;;;;;6.37;5.77;;;6.70;99.90;;;;;;10509396;28;20591;-78
2021/12/19 13:42:38;;;;;;;6.50;6.00;;;6.70;99.90;;;;;;10507838;28;20651;-79
2021/12/19 13:47:41;;;;;;;7.00;6.40;;;6.70;99.90;;;;;;10506833;28;20244;-79
2021/12/19 13:52:44;;;;;;;6.80;6.10;;;6.70;99.90;;;;;;10494755;28;20197;-78
2021/12/19 13:57:47;;;;;;;6.17;5.57;;;6.60;99.90;;;;;;10512725;28;20212;-79
2021/12/19 14:02:50;;;;;;;6.40;5.80;;;6.60;99.90;;;;;;10503278;28;20593;-80
2021/12/19 14:07:52;;;;;;;5.70;5.30;;;6.50;99.90;;;;;;10502786;28;20732;-78
2021/12/19 14:13:06;;;;;;;7.10;6.50;;;6.50;99.90;;;;;;10505806;28;20206;-78
2021/12/19 14:18:27;;;;;;;8.50;7.70;;;6.60;99.90;;;;;;10505278;28;20212;-79
2021/12/19 14:23:29;;;;;;;7.87;7.17;;;6.60;99.90;;;;;;10505140;28;20215;-79
2021/12/19 14:28:36;;;;;;;8.07;7.27;;;6.60;99.90;;;;;;10505726;28;20672;-79
2021/12/19 14:33:40;;;;;;;8.93;8.23;;;6.70;99.90;;;;;;10508056;28;20189;-79
2021/12/19 14:38:42;;;;;;;11.17;10.13;;;6.70;99.90;;;;;;10505689;28;20215;-79
2021/12/19 14:43:45;;;;;;;9.70;8.90;;;6.70;99.90;;;;;;10511927;28;20227;-79
2021/12/19 14:48:47;;;;;;;10.47;9.47;;;6.70;99.90;;;;;;10511558;28;20216;-79
2021/12/19 14:54:00;;;;;;;10.77;9.77;;;6.70;99.90;;;;;;10511303;28;20213;-79
2021/12/19 14:59:05;;;;;;;10.03;9.13;;;6.70;99.90;;;;;;10511528;28;20613;-79
2021/12/19 15:04:09;;;;;;;13.00;11.77;;;6.70;99.90;;;;;;10511204;28;20221;-79
2021/12/19 15:09:14;;;;;;;10.17;9.27;;;6.70;99.90;;;;;;10510897;28;20314;-78
2021/12/19 15:14:18;;;;;;;10.00;9.10;;;6.70;99.90;;;;;;10506584;28;20193;-78
2021/12/19 15:19:20;;;;;;;9.03;8.17;;;6.60;99.90;;;;;;10509847;28;20258;-78
2021/12/19 15:24:22;;;;;;;9.37;8.47;;;6.60;99.90;;;;;;10509011;28;20212;-78
2021/12/19 15:29:26;;;;;;;9.53;8.63;;;6.60;99.90;;;;;;10508454;28;20253;-79
2021/12/19 15:34:29;;;;;;;9.97;9.03;;;6.60;99.90;;;;;;10508338;28;20189;-78
2021/12/19 15:39:31;;;;;;;9.90;9.00;;;6.60;99.90;;;;;;10507946;28;20208;-79
2021/12/19 15:44:34;;;;;;;10.17;9.27;;;6.60;99.90;;;;;;10509174;28;20280;-79
2021/12/19 15:49:36;;;;;;;8.90;8.10;;;6.50;99.90;;;;;;10504056;28;20308;-78
2021/12/19 15:54:39;;;;;;;8.80;7.90;;;6.50;99.90;;;;;;10504705;28;20185;-78
2021/12/19 15:59:44;;;;;;;9.77;8.80;;;6.50;99.90;;;;;;10505606;28;20594;-79
2021/12/19 16:04:47;;;;;;;9.00;8.20;;;6.40;99.90;;;;;;10507505;28;20209;-78
2021/12/19 16:09:49;;;;;;;9.93;8.93;;;6.40;99.90;;;;;;10505810;28;20283;-79
2021/12/19 16:14:53;;;;;;;9.73;8.87;;;6.40;99.90;;;;;;10506413;28;20649;-78
2021/12/19 16:19:55;;;;;;;10.03;8.90;;;6.40;99.90;;;;;;10506406;28;20288;-79
2021/12/19 16:24:58;;;;;;;10.80;9.73;;;6.40;99.90;;;;;;10505144;28;20212;-79
2021/12/19 16:30:02;;;;;;;10.17;9.17;;;6.40;99.90;;;;;;10507829;28;20213;-79
2021/12/19 16:35:06;;;;;;;11.10;10.00;;;6.40;99.90;;;;;;10505091;28;20610;-78
2021/12/19 16:40:10;;;;;;;12.13;10.80;;;6.50;99.90;;;;;;10502507;28;20236;-78
2021/12/19 16:45:14;;;;;;;13.13;11.83;;;6.40;99.90;;;;;;10502486;28;20285;-78
2021/12/19 16:50:16;;;;;;;13.47;11.67;;;6.40;99.90;;;;;;10503035;28;20239;-78
2021/12/19 16:55:18;;;;;;;12.60;11.30;;;6.40;99.90;;;;;;10503585;28;20659;-78
2021/12/19 17:00:22;;;;;;;14.33;12.70;;;6.40;99.90;;;;;;10503213;28;20699;-78
2021/12/19 17:05:24;;;;;;;12.10;10.97;;;6.40;99.90;;;;;;10503085;28;20580;-78
2021/12/19 17:10:26;;;;;;;12.13;10.83;;;6.40;99.90;;;;;;10501364;28;20213;-78
2021/12/19 17:15:31;;;;;;;13.37;11.97;;;6.40;99.90;;;;;;10501610;28;20185;-78
2021/12/19 17:20:37;;;;;;;13.67;12.17;;;6.40;99.90;;;;;;10502919;28;20193;-78
2021/12/19 17:25:41;;;;;;;13.63;12.27;;;6.40;99.90;;;;;;10502580;28;20216;-78
2021/12/19 17:30:47;;;;;;;13.07;11.77;;;6.40;99.90;;;;;;10500603;28;20197;-78
2021/12/19 17:35:51;;;;;;;13.80;12.30;;;6.30;99.90;;;;;;10503101;28;20686;-78
2021/12/19 17:40:56;;;;;;;14.97;12.50;;;6.40;99.90;;;;;;10502802;28;20273;-77
2021/12/19 17:46:01;;;;;;;13.87;12.50;;;6.40;99.90;;;;;;10504644;28;20609;-78
2021/12/19 17:51:04;;;;;;;14.53;13.07;;;6.40;99.90;;;;;;10501522;28;20279;-78
2021/12/19 17:56:07;;;;;;;15.00;13.07;;;6.40;99.90;;;;;;10503488;28;20247;-80
2021/12/19 18:01:13;;;;;;;14.33;12.90;;;6.40;99.90;;;;;;10499806;28;20557;-79
2021/12/19 18:06:16;;;;;;;13.47;12.07;;;6.40;99.90;;;;;;10499567;28;20235;-79
2021/12/19 18:11:19;;;;;;;14.67;13.23;;;6.40;99.90;;;;;;10503114;28;20196;-80
2021/12/19 18:16:24;;;;;;;15.33;13.77;;;6.40;99.90;;;;;;10502407;28;20619;-80
2021/12/19 18:21:26;;;;;;;14.00;12.60;;;6.40;99.90;;;;;;10506643;28;20200;-80
2021/12/19 18:26:30;;;;;;;15.70;14.10;;;6.40;99.90;;;;;;10506147;28;20695;-80
2021/12/19 18:31:36;;;;;;;16.43;14.50;;;6.30;99.90;;;;;;10505273;28;20189;-79
2021/12/19 18:36:42;;;;;;;16.83;15.03;;;6.30;99.90;;;;;;10504082;28;20217;-79
2021/12/19 18:41:58;;;;;;;17.90;14.47;;;6.40;99.90;;;;;;10505472;28;20283;-80
2021/12/19 18:47:22;;;;;;;16.50;14.37;;;6.40;99.90;;;;;;10504578;28;20230;-80
2021/12/19 18:52:35;;;;;;;16.60;14.87;;;6.40;99.90;;;;;;10490688;28;20192;-80
2021/12/19 18:57:41;;;;;;;14.87;13.37;;;6.40;99.90;;;;;;10507981;28;20224;-80
2021/12/19 19:02:54;;;;;;;15.60;13.50;;;6.40;99.90;;;;;;10512012;28;20223;-80
2021/12/19 19:08:00;;;;;;;16.53;14.73;;;6.50;99.90;;;;;;10514297;28;20217;-80
2021/12/19 19:13:04;;;;;;;15.40;13.80;;;6.50;99.90;;;;;;10512606;28;20188;-80
2021/12/19 19:18:08;;;;;;;16.10;14.40;;;6.50;99.90;;;;;;10486192;28;20216;-79
2021/12/19 19:23:12;;;;;;;17.40;14.47;;;6.50;99.90;;;;;;10503925;28;20571;-79
2021/12/19 19:28:14;;;;;;;17.07;14.00;;;6.50;99.90;;;;;;10502861;28;20224;-80
2021/12/19 19:33:18;;;;;;;17.20;14.60;;;6.50;99.90;;;;;;10503627;28;20194;-80
2021/12/19 19:38:30;;;;;;;16.73;14.20;;;6.50;99.90;;;;;;10503250;28;20239;-79
2021/12/19 19:43:48;;;;;;;17.10;14.40;;;6.60;99.90;;;;;;10503779;28;20290;-81
2021/12/19 19:49:08;;;;;;;18.23;16.13;;;6.50;99.90;;;;;;10504061;28;20789;-79
2021/12/19 19:54:12;;;;;;;18.37;15.63;;;6.60;99.90;;;;;;10502213;28;20195;-79
2021/12/19 19:59:20;;;;;;;18.23;15.27;;;6.60;99.90;;;;;;10504654;28;20714;-78
2021/12/19 20:04:24;;;;;;;21.37;17.60;;;6.60;99.90;;;;;;10505593;28;20209;-78
2021/12/19 20:09:28;;;;;;;20.70;17.27;;;6.70;99.90;;;;;;10505839;28;20665;-79
2021/12/19 20:14:30;;;;;;;19.70;17.50;;;6.80;99.90;;;;;;10504094;28;20197;-80
2021/12/19 20:19:34;;;;;;;21.23;18.93;;;6.80;99.90;;;;;;10504561;28;20684;-80
2021/12/19 20:24:37;;;;;;;21.17;17.90;;;6.90;99.90;;;;;;10503956;28;20216;-79
2021/12/19 20:29:39;;;;;;;21.60;18.87;;;6.90;99.90;;;;;;10502201;28;20221;-78
2021/12/19 20:34:42;;;;;;;22.60;18.33;;;7.00;99.90;;;;;;10506063;28;20219;-79
2021/12/19 20:39:44;;;;;;;20.27;17.33;;;7.00;99.90;;;;;;10505087;28;20258;-79
2021/12/19 20:44:47;;;;;;;20.23;18.10;;;7.00;99.90;;;;;;10505325;28;20303;-78
2021/12/19 20:49:50;;;;;;;19.07;17.07;;;7.00;99.90;;;;;;10508621;28;20219;-80
2021/12/19 20:54:53;;;;;;;21.90;19.27;;;7.10;99.90;;;;;;10505061;28;20185;-80
2021/12/19 20:59:55;;;;;;;22.20;17.10;;;7.10;99.90;;;;;;10499605;28;20235;-80
2021/12/19 21:04:58;;;;;;;21.20;18.63;;;7.10;99.90;;;;;;10500965;28;20223;-78
2021/12/19 21:10:00;;;;;;;20.57;18.23;;;7.20;99.90;;;;;;10501304;28;20219;-78
2021/12/19 21:15:25;;;;;;;22.70;17.37;;;7.20;99.90;;;;;;10504194;28;20200;-78
2021/12/19 21:20:28;;;;;;;21.97;19.57;;;7.20;99.90;;;;;;10501776;28;20268;-77
2021/12/19 21:25:31;;;;;;;20.17;17.23;;;7.20;99.90;;;;;;10485365;28;20764;-79
2021/12/19 21:30:33;;;;;;;22.53;20.13;;;7.20;99.90;;;;;;10500123;28;20193;-78
2021/12/19 21:35:55;;;;;;;19.80;17.70;;;7.20;99.90;;;;;;10503824;28;20181;-78
2021/12/19 21:40:57;;;;;;;20.67;18.47;;;7.20;99.90;;;;;;10504003;28;20192;-78
2021/12/19 21:45:59;;;;;;;22.17;19.10;;;7.20;99.90;;;;;;10501025;28;20224;-77
2021/12/19 21:51:03;;;;;;;19.67;17.33;;;7.20;99.90;;;;;;10502572;28;20275;-77
2021/12/19 21:56:08;;;;;;;20.37;18.23;;;7.20;99.90;;;;;;10501034;28;20228;-78
2021/12/19 22:01:13;;;;;;;21.23;18.90;;;7.30;99.90;;;;;;10500726;28;20264;-78
2021/12/19 22:06:17;;;;;;;22.00;19.70;;;7.30;99.90;;;;;;10500204;28;20656;-77
2021/12/19 22:11:23;;;;;;;22.30;19.60;;;7.30;99.90;;;;;;10500411;28;20569;-78
2021/12/19 22:16:25;;;;;;;20.80;18.60;;;7.30;99.90;;;;;;10501955;28;20204;-78
2021/12/19 22:21:29;;;;;;;21.03;18.70;;;7.30;99.90;;;;;;10500779;28;20271;-78
2021/12/19 22:26:31;;;;;;;19.77;17.67;;;7.30;99.90;;;;;;10501739;28;20234;-78
2021/12/19 22:31:33;;;;;;;21.03;18.80;;;7.40;99.90;;;;;;10501643;28;20193;-78
2021/12/19 22:36:37;;;;;;;21.17;18.87;;;7.40;99.90;;;;;;10497616;28;20239;-78
2021/12/19 22:41:39;;;;;;;21.40;19.30;;;7.40;99.90;;;;;;10499662;28;20189;-78
2021/12/19 22:46:41;;;;;;;22.33;20.00;;;7.40;99.90;;;;;;10501846;28;20730;-78
2021/12/19 22:51:45;;;;;;;21.63;19.30;;;7.40;99.90;;;;;;10502288;28;20251;-78
2021/12/19 22:56:47;;;;;;;20.03;17.93;;;7.40;99.90;;;;;;10500161;28;20217;-79
2021/12/19 23:01:49;;;;;;;20.70;18.60;;;7.40;99.90;;;;;;10506065;28;20188;-78
2021/12/19 23:06:53;;;;;;;20.83;18.57;;;7.40;99.90;;;;;;10508776;28;20251;-79
2021/12/19 23:11:58;;;;;;;21.30;19.10;;;7.40;99.90;;;;;;10511199;28;20218;-78
2021/12/19 23:17:06;;;;;;;21.20;18.80;;;7.40;99.90;;;;;;10508714;28;20291;-78
2021/12/19 23:22:10;;;;;;;22.00;19.60;;;7.40;99.90;;;;;;10510594;28;20215;-78
2021/12/19 23:27:12;;;;;;;21.90;19.50;;;7.40;99.90;;;;;;10492712;28;20274;-79
2021/12/19 23:32:18;;;;;;;19.80;17.70;;;7.40;99.90;;;;;;10510844;28;20185;-78
2021/12/19 23:37:29;;;;;;;20.90;18.77;;;7.40;99.90;;;;;;10508666;28;20629;-79
2021/12/19 23:42:51;;;;;;;23.07;20.67;;;7.40;99.90;;;;;;10507007;28;20305;-78
2021/12/19 23:47:55;;;;;;;23.57;20.67;;;7.40;99.90;;;;;;10488050;28;20223;-78
2021/12/19 23:52:59;;;;;;;21.90;19.40;;;7.40;99.90;;;;;;10488699;28;20663;-78
2021/12/19 23:58:01;;;;;;;21.17;18.97;;;7.40;99.90;;;;;;10504610;28;20606;-78
